Time;durP1;ratioP1;P1;durP2;ratioP2;P2;SDS_P1;SDS_P2;PMS_P1;PMS_P2;Temp;Humidity;BMP_temperature;BMP_pressure;BME280_temperature;BME280_humidity;BME280_pressure;Samples;Min_cycle;Max_cycle;Signal;HPM_P1;HPM_P2
2022/04/18 06:14:19;;;;;;;11.65;9.98;;;;;;;;;;10617751;27;20363;-85
2022/04/18 06:25:08;;;;;;;13.23;10.45;;;;;;;;;;10623986;28;20019;-85
2022/04/18 06:30:25;;;;;;;11.80;8.85;;;;;;;;;;10607845;28;20033;-86
2022/04/18 06:35:31;;;;;;;11.30;9.55;;;;;;;;;;10604852;28;20035;-86
2022/04/18 06:40:44;;;;;;;11.52;9.13;;;;;;;;;;10604423;28;20128;-86
2022/04/18 06:45:46;;;;;;;11.35;9.50;;;;;;;;;;10603450;28;20038;-86
2022/04/18 06:50:47;;;;;;;10.57;8.50;;;;;;;;;;10623481;28;20024;-86
2022/04/18 07:01:31;;;;;;;9.80;8.25;;;;;;;;;;10627980;27;20405;-86
2022/04/18 07:06:49;;;;;;;9.30;7.57;;;;;;;;;;10602925;28;20038;-86
2022/04/18 07:11:52;;;;;;;9.35;7.43;;;;;;;;;;10618282;28;20035;-87
2022/04/18 07:17:00;;;;;;;9.23;7.60;;;;;;;;;;10603464;28;20501;-86
2022/04/18 07:22:02;;;;;;;10.07;7.68;;;;;;;;;;10593383;28;20035;-86
2022/04/18 07:27:03;;;;;;;8.60;7.05;;;;;;;;;;10573700;28;20020;-87
2022/04/18 07:32:15;;;;;;;8.48;6.70;;;;;;;;;;10573033;28;20400;-86
2022/04/18 07:37:26;;;;;;;7.90;5.95;;;;;;;;;;10573340;28;20035;-87
2022/04/18 07:42:48;;;;;;;10.20;7.07;;;;;;;;;;10592559;28;20030;-86
2022/04/18 07:47:53;;;;;;;8.88;7.13;;;;;;;;;;10568535;28;20035;-87
2022/04/18 07:52:54;;;;;;;12.93;9.68;;;;;;;;;;10597823;28;20091;-87
2022/04/18 08:03:36;;;;;;;17.07;11.60;;;;;;;;;;10614166;27;20035;-85
2022/04/18 08:08:48;;;;;;;10.98;8.50;;;;;;;;;;10585332;28;20023;-85
2022/04/18 08:13:49;;;;;;;9.40;6.93;;;;;;;;;;10583929;28;20517;-85
2022/04/18 08:18:51;;;;;;;9.70;6.93;;;;;;;;;;10583468;28;20038;-85
2022/04/18 08:23:52;;;;;;;9.25;6.45;;;;;;;;;;10587159;28;20027;-85
2022/04/18 08:28:53;;;;;;;8.55;6.43;;;;;;;;;;10586127;28;20100;-85
2022/04/18 08:39:40;;;;;;;7.53;5.63;;;;;;;;;;10602759;28;20401;-84
2022/04/18 08:44:42;;;;;;;6.55;4.63;;;;;;;;;;10578925;28;20022;-85
2022/04/18 08:55:03;;;;;;;7.10;4.70;;;;;;;;;;10600080;27;20031;-85
2022/04/18 09:00:05;;;;;;;6.05;4.43;;;;;;;;;;10575566;28;20032;-85
2022/04/18 09:05:10;;;;;;;6.68;4.45;;;;;;;;;;10615118;27;20008;-85
2022/04/18 09:10:11;;;;;;;7.10;5.13;;;;;;;;;;10616334;27;20111;-86
2022/04/18 09:15:13;;;;;;;7.03;5.13;;;;;;;;;;10611782;28;20028;-85
2022/04/18 09:20:14;;;;;;;6.05;4.78;;;;;;;;;;10612371;28;20019;-84
2022/04/18 09:25:20;;;;;;;6.65;4.72;;;;;;;;;;10584798;28;20030;-85
2022/04/18 09:30:21;;;;;;;6.30;4.50;;;;;;;;;;10572731;28;20039;-85
2022/04/18 09:35:26;;;;;;;6.20;4.78;;;;;;;;;;10571708;28;20058;-84
2022/04/18 09:40:27;;;;;;;5.90;4.28;;;;;;;;;;10572250;28;20034;-84
2022/04/18 09:45:28;;;;;;;5.30;4.13;;;;;;;;;;10571762;28;20031;-85
2022/04/18 09:55:54;;;;;;;5.30;4.50;;;;;;;;;;10600072;28;20031;-86
2022/04/18 10:00:55;;;;;;;5.50;4.18;;;;;;;;;;10608061;27;20026;-87
2022/04/18 10:05:58;;;;;;;4.40;3.72;;;;;;;;;;10601043;27;20026;-86
2022/04/18 10:11:00;;;;;;;4.57;3.80;;;;;;;;;;10599650;27;20059;-86
2022/04/18 10:16:01;;;;;;;5.65;3.83;;;;;;;;;;10585348;28;20023;-86
2022/04/18 10:21:16;;;;;;;6.53;4.20;;;;;;;;;;10574203;28;20016;-86
2022/04/18 10:26:29;;;;;;;4.95;4.30;;;;;;;;;;10593066;28;20023;-86
2022/04/18 10:31:32;;;;;;;4.35;3.20;;;;;;;;;;10572054;28;20032;-86
2022/04/18 10:36:34;;;;;;;4.10;3.50;;;;;;;;;;10575782;28;20583;-87
2022/04/18 10:41:42;;;;;;;6.50;4.35;;;;;;;;;;10580219;28;20032;-88
2022/04/18 10:47:03;;;;;;;5.38;4.43;;;;;;;;;;10608101;27;20032;-87
2022/04/18 10:52:08;;;;;;;;;;;;;;;;;;10570384;28;20020;-87
2022/04/18 10:57:13;;;;;;;5.57;4.75;;;;;;;;;;10594972;28;19904;-87
2022/04/18 11:02:37;;;;;;;4.75;4.22;;;;;;;;;;10581975;28;20024;-87
2022/04/18 11:07:39;;;;;;;4.90;4.07;;;;;;;;;;10594711;28;20027;-86
2022/04/18 11:12:43;;;;;;;5.13;4.45;;;;;;;;;;10576661;28;20382;-85
2022/04/18 11:17:44;;;;;;;5.82;4.63;;;;;;;;;;10596085;28;20046;-85
2022/04/18 11:23:05;;;;;;;5.00;3.95;;;;;;;;;;10594313;28;20028;-86
2022/04/18 11:28:06;;;;;;;6.20;4.93;;;;;;;;;;10587855;28;20024;-88
2022/04/18 11:33:07;;;;;;;5.45;4.30;;;;;;;;;;10582092;28;20047;-87
2022/04/18 11:38:10;;;;;;;4.90;4.03;;;;;;;;;;10579602;28;20374;-86
2022/04/18 11:43:16;;;;;;;5.32;4.07;;;;;;;;;;10578073;28;20024;-87
2022/04/18 11:48:22;;;;;;;5.57;4.97;;;;;;;;;;10574726;28;20059;-86
2022/04/18 11:53:30;;;;;;;6.72;5.05;;;;;;;;;;10575476;28;20031;-86
2022/04/18 11:58:35;;;;;;;6.28;4.57;;;;;;;;;;10574221;28;20032;-86
2022/04/18 12:08:56;;;;;;;4.03;3.50;;;;;;;;;;10602835;28;20028;-86
2022/04/18 12:14:00;;;;;;;5.05;4.00;;;;;;;;;;10574133;28;20446;-86
2022/04/18 12:19:01;;;;;;;5.45;4.72;;;;;;;;;;10574001;28;20039;-86
2022/04/18 12:24:02;;;;;;;5.20;3.80;;;;;;;;;;10580206;28;20026;-84
2022/04/18 12:29:06;;;;;;;5.05;4.22;;;;;;;;;;10574121;28;20032;-86
2022/04/18 12:34:16;;;;;;;6.85;3.85;;;;;;;;;;10574229;28;20035;-86
2022/04/18 12:39:21;;;;;;;5.43;4.50;;;;;;;;;;10590601;27;20046;-88
2022/04/18 12:44:22;;;;;;;6.30;3.95;;;;;;;;;;10588459;28;20482;-86
2022/04/18 12:49:23;;;;;;;6.03;5.03;;;;;;;;;;10573565;28;20028;-86
2022/04/18 12:54:26;;;;;;;5.38;3.72;;;;;;;;;;10571400;28;20180;-86
2022/04/18 12:59:28;;;;;;;5.30;3.70;;;;;;;;;;10573259;28;20486;-85
2022/04/18 13:04:29;;;;;;;4.75;3.17;;;;;;;;;;10572171;28;20020;-86
2022/04/18 13:09:31;;;;;;;3.45;3.15;;;;;;;;;;10575102;28;20375;-85
2022/04/18 13:14:32;;;;;;;4.00;3.60;;;;;;;;;;10570055;28;20039;-86
2022/04/18 13:19:33;;;;;;;4.97;3.63;;;;;;;;;;10570658;28;20016;-86
2022/04/18 13:24:34;;;;;;;4.40;4.00;;;;;;;;;;10572113;28;20492;-87
2022/04/18 13:29:35;;;;;;;5.07;3.83;;;;;;;;;;10576686;28;20427;-87
2022/04/18 13:34:36;;;;;;;3.78;2.97;;;;;;;;;;10572484;28;20039;-86
2022/04/18 13:39:37;;;;;;;4.32;3.58;;;;;;;;;;10573458;28;20110;-86
2022/04/18 13:44:38;;;;;;;4.43;3.60;;;;;;;;;;10573581;28;20032;-86
2022/04/18 13:49:40;;;;;;;3.97;3.47;;;;;;;;;;10568877;28;20020;-86
2022/04/18 13:54:41;;;;;;;4.10;2.90;;;;;;;;;;10570382;28;20016;-86
2022/04/18 13:59:42;;;;;;;4.00;2.97;;;;;;;;;;10570089;28;20015;-86
2022/04/18 14:04:43;;;;;;;4.28;2.97;;;;;;;;;;10597621;27;20024;-87
2022/04/18 14:09:45;;;;;;;3.08;2.70;;;;;;;;;;10586773;28;20032;-86
2022/04/18 14:20:21;;;;;;;3.55;2.85;;;;;;;;;;10613325;27;20131;-86
2022/04/18 14:25:24;;;;;;;5.70;3.03;;;;;;;;;;10574103;28;20390;-87
2022/04/18 14:30:25;;;;;;;4.22;3.10;;;;;;;;;;10592106;28;20393;-86
2022/04/18 14:35:26;;;;;;;3.22;2.55;;;;;;;;;;10610924;27;20055;-87
2022/04/18 14:40:29;;;;;;;4.82;2.80;;;;;;;;;;10593409;28;20393;-87
2022/04/18 14:45:30;;;;;;;2.78;2.08;;;;;;;;;;10582610;28;20024;-88
2022/04/18 14:50:31;;;;;;;3.70;2.22;;;;;;;;;;10582388;28;20036;-87
2022/04/18 14:55:31;;;;;;;3.20;2.10;;;;;;;;;;10579526;28;20066;-87
2022/04/18 15:00:33;;;;;;;3.25;1.70;;;;;;;;;;10579769;28;20023;-87
2022/04/18 15:05:34;;;;;;;2.97;1.58;;;;;;;;;;10593503;28;20016;-87
2022/04/18 15:10:36;;;;;;;2.70;1.83;;;;;;;;;;10577017;28;20039;-87
2022/04/18 15:15:37;;;;;;;2.38;1.70;;;;;;;;;;10578818;28;20480;-86
2022/04/18 15:20:38;;;;;;;20.52;15.40;;;;;;;;;;10577125;28;20031;-86
2022/04/18 15:25:39;;;;;;;2.67;1.70;;;;;;;;;;10575434;28;20027;-86
2022/04/18 15:36:00;;;;;;;3.67;2.20;;;;;;;;;;10594561;28;20020;-85
2022/04/18 15:41:01;;;;;;;3.03;2.00;;;;;;;;;;10575739;28;20110;-86
2022/04/18 15:46:03;;;;;;;4.78;2.63;;;;;;;;;;10572941;28;20123;-85
2022/04/18 15:51:04;;;;;;;3.65;3.03;;;;;;;;;;10573373;28;20028;-85
2022/04/18 15:56:06;;;;;;;2.58;2.20;;;;;;;;;;10577365;28;20130;-85
2022/04/18 16:01:07;;;;;;;4.18;3.60;;;;;;;;;;10576757;28;20142;-85
2022/04/18 16:06:09;;;;;;;3.47;2.20;;;;;;;;;;10606703;27;20024;-87
2022/04/18 16:11:10;;;;;;;3.40;2.42;;;;;;;;;;10593890;28;20072;-85
2022/04/18 16:16:11;;;;;;;2.50;2.00;;;;;;;;;;10576450;28;20111;-85
2022/04/18 16:21:12;;;;;;;5.65;4.40;;;;;;;;;;10576967;28;20028;-87
2022/04/18 16:26:14;;;;;;;4.82;3.13;;;;;;;;;;10580794;28;20023;-87
2022/04/18 16:36:35;;;;;;;3.67;2.73;;;;;;;;;;10594201;28;20036;-87
2022/04/18 16:46:56;;;;;;;2.97;2.10;;;;;;;;;;10605729;28;20016;-86
2022/04/18 16:51:57;;;;;;;2.10;1.80;;;;;;;;;;10577511;28;20027;-87
2022/04/18 16:56:58;;;;;;;2.72;1.90;;;;;;;;;;10583053;28;20024;-87
2022/04/18 17:01:59;;;;;;;2.53;2.08;;;;;;;;;;10576944;28;20033;-88
2022/04/18 17:07:00;;;;;;;2.50;1.95;;;;;;;;;;10599785;28;20024;-88
2022/04/18 17:12:01;;;;;;;2.60;2.05;;;;;;;;;;10593576;28;20023;-87
2022/04/18 17:17:02;;;;;;;4.05;2.70;;;;;;;;;;10585453;28;20070;-87
2022/04/18 17:22:03;;;;;;;4.25;2.03;;;;;;;;;;10574941;28;20066;-87
2022/04/18 17:27:06;;;;;;;4.43;2.90;;;;;;;;;;10576131;28;20016;-85
2022/04/18 17:32:07;;;;;;;2.90;2.30;;;;;;;;;;10585026;28;20024;-85
2022/04/18 17:37:08;;;;;;;2.45;1.95;;;;;;;;;;10586865;28;20027;-85
2022/04/18 17:42:09;;;;;;;2.63;2.13;;;;;;;;;;10587090;28;20034;-86
2022/04/18 17:47:10;;;;;;;2.58;1.40;;;;;;;;;;10584265;28;20409;-86
2022/04/18 17:52:11;;;;;;;2.15;1.88;;;;;;;;;;10600785;27;20016;-87
2022/04/18 17:57:13;;;;;;;2.35;1.70;;;;;;;;;;10593014;28;20032;-87
2022/04/18 18:02:14;;;;;;;2.10;1.70;;;;;;;;;;10585311;28;20031;-86
2022/04/18 18:07:15;;;;;;;2.63;1.80;;;;;;;;;;10608768;27;20043;-87
2022/04/18 18:12:16;;;;;;;2.97;2.00;;;;;;;;;;10585666;28;20054;-85
2022/04/18 18:17:17;;;;;;;2.10;1.73;;;;;;;;;;10582203;28;20122;-86
2022/04/18 18:22:18;;;;;;;2.00;1.60;;;;;;;;;;10590029;27;20020;-87
2022/04/18 18:27:19;;;;;;;3.08;2.28;;;;;;;;;;10601619;27;20031;-86
2022/04/18 18:32:20;;;;;;;2.63;2.22;;;;;;;;;;10580375;28;20437;-85
2022/04/18 18:37:21;;;;;;;3.35;1.73;;;;;;;;;;10582577;28;20031;-85
2022/04/18 18:42:22;;;;;;;2.15;1.65;;;;;;;;;;10581660;28;20067;-85
2022/04/18 18:47:23;;;;;;;3.08;1.98;;;;;;;;;;10583821;28;20036;-86
2022/04/18 18:52:24;;;;;;;4.00;1.52;;;;;;;;;;10579898;28;20528;-86
2022/04/18 18:57:25;;;;;;;2.08;1.77;;;;;;;;;;10588120;28;20035;-86
2022/04/18 19:02:26;;;;;;;2.05;1.50;;;;;;;;;;10575603;28;20023;-86
2022/04/18 19:07:28;;;;;;;2.80;2.13;;;;;;;;;;10577959;28;20051;-86
2022/04/18 19:12:31;;;;;;;2.50;2.10;;;;;;;;;;10577306;28;20031;-86
2022/04/18 19:28:11;;;;;;;1.93;1.50;;;;;;;;;;10606211;28;20032;-86
